Time;durP1;ratioP1;P1;durP2;ratioP2;P2;SDS_P1;SDS_P2;PMS_P1;PMS_P2;Temp;Humidity;BMP_temperature;BMP_pressure;BME280_temperature;BME280_humidity;BME280_pressure;Samples;Min_cycle;Max_cycle;Signal;HPM_P1;HPM_P2
2022/09/29 00:01:10;;;;;;;11.50;4.40;;;;;;;-141.28;100.00;48411.16;5093152;28;20220;-74
2022/09/29 00:03:38;;;;;;;7.90;4.13;;;;;;;-141.28;100.00;48391.53;5093357;28;20219;-75
2022/09/29 00:06:13;;;;;;;9.87;4.00;;;;;;;-141.28;100.00;48387.63;5092593;28;20542;-75
2022/09/29 00:08:42;;;;;;;6.90;3.90;;;;;;;-141.28;100.00;48348.38;5079617;28;20227;-77
2022/09/29 00:11:10;;;;;;;12.47;4.20;;;;;;;-141.28;100.00;48379.78;5085876;28;20199;-75
2022/09/29 00:13:39;;;;;;;6.97;3.80;;;;;;;-141.28;100.00;48383.69;5093487;28;20222;-75
2022/09/29 00:16:06;;;;;;;6.17;4.00;;;;;;;-141.28;100.00;48391.53;5092892;28;20191;-76
2022/09/29 00:18:35;;;;;;;6.23;3.43;;;;;;;-141.28;100.00;48407.22;5081515;28;20208;-76
2022/09/29 00:21:04;;;;;;;8.27;3.57;;;;;;;-141.28;100.00;48415.06;5086062;28;20211;-76
2022/09/29 00:23:33;;;;;;;7.10;3.50;;;;;;;-141.28;100.00;48426.84;5085752;28;20588;-74
2022/09/29 00:26:02;;;;;;;6.30;3.80;;;;;;;-141.28;100.00;48430.78;5071258;28;20600;-75
2022/09/29 00:28:31;;;;;;;7.13;3.93;;;;;;;-141.28;100.00;48358.19;5086708;28;20256;-76
2022/09/29 00:31:00;;;;;;;7.47;3.77;;;;;;;-141.28;100.00;48426.84;5099996;28;20205;-77
2022/09/29 00:33:30;;;;;;;9.70;4.00;;;;;;;-141.28;100.00;48446.47;5095707;28;20195;-76
2022/09/29 00:36:00;;;;;;;10.17;4.10;;;;;;;-141.28;100.00;48452.34;5074288;28;20204;-76
2022/09/29 00:38:27;;;;;;;10.63;4.03;;;;;;;-141.28;100.00;48462.16;5092766;28;20199;-75
2022/09/29 00:40:55;;;;;;;10.50;4.30;;;;;;;-141.28;100.00;48468.03;5070968;28;20226;-75
2022/09/29 00:43:25;;;;;;;8.30;3.43;;;;;;;-141.28;100.00;48479.81;5091342;28;20223;-75
2022/09/29 00:45:54;;;;;;;6.90;3.80;;;;;;;-141.28;100.00;48470.00;5091856;28;20268;-76
2022/09/29 00:48:32;;;;;;;6.30;3.57;;;;;;;-141.28;100.00;48524.94;5079936;28;20215;-74
2022/09/29 00:51:00;;;;;;;6.63;3.23;;;;;;;-141.28;100.00;48515.13;5092301;28;20198;-75
2022/09/29 00:53:28;;;;;;;7.57;3.60;;;;;;;-141.28;100.00;48544.56;5092520;28;20281;-75
2022/09/29 00:55:59;;;;;;;9.10;3.10;;;;;;;-141.28;100.00;48558.28;5092126;28;20681;-75
2022/09/29 00:58:32;;;;;;;4.37;3.20;;;;;;;-141.28;100.00;48568.09;5092374;28;20604;-75
2022/09/29 01:01:00;;;;;;;6.03;3.20;;;;;;;-141.28;100.00;48579.88;5073894;28;20245;-75
2022/09/29 01:03:34;;;;;;;9.43;3.47;;;;;;;-141.28;100.00;48591.63;5092051;28;20227;-74
2022/09/29 01:06:05;;;;;;;5.67;3.10;;;;;;;-141.28;100.00;48589.66;5092484;28;20200;-73
2022/09/29 01:08:40;;;;;;;6.27;3.83;;;;;;;-141.28;100.00;48605.38;5099466;28;20208;-75
2022/09/29 01:11:07;;;;;;;11.60;3.60;;;;;;;-141.28;100.00;48623.03;5079152;28;20263;-74
2022/09/29 01:13:35;;;;;;;6.73;3.83;;;;;;;-141.28;100.00;48623.03;5092045;28;20613;-75
2022/09/29 01:16:02;;;;;;;6.53;3.13;;;;;;;-141.28;100.00;48619.09;5092073;28;20282;-75
2022/09/29 01:18:32;;;;;;;4.87;3.10;;;;;;;-141.28;100.00;48636.75;5091822;28;20196;-78
2022/09/29 01:21:07;;;;;;;3.97;3.00;;;;;;;-141.28;100.00;48674.03;5091838;28;20191;-74
2022/09/29 01:24:07;;;;;;;5.17;2.73;;;;;;;-141.28;100.00;48764.28;5091522;28;20219;-75
2022/09/29 01:27:06;;;;;;;6.90;2.60;;;;;;;-141.28;100.00;48842.75;5073956;28;20253;-75
2022/09/29 01:30:05;;;;;;;10.57;2.90;;;;;;;-141.28;100.00;48830.97;5083613;28;20212;-75
2022/09/29 01:32:56;;;;;;;4.77;2.80;;;;;;;-141.28;100.00;48878.06;5092940;28;20203;-75
2022/09/29 01:35:30;;;;;;;4.73;3.07;;;;;;;-141.28;100.00;48807.44;5093698;28;20199;-75
2022/09/29 01:38:12;;;;;;;5.80;2.93;;;;;;;-141.28;100.00;48803.50;5091782;28;20196;-76
2022/09/29 01:40:48;;;;;;;3.37;2.60;;;;;;;-141.28;100.00;48756.44;5090474;28;20195;-74
2022/09/29 01:43:21;;;;;;;8.33;3.13;;;;;;;-141.28;100.00;48728.97;5091473;28;20218;-76
2022/09/29 01:45:53;;;;;;;5.17;3.13;;;;;;;-141.28;100.00;48701.50;5091560;28;20650;-75
2022/09/29 01:48:28;;;;;;;6.30;3.13;;;;;;;-141.28;100.00;48693.66;5091448;28;20195;-75
2022/09/29 01:50:58;;;;;;;6.97;3.10;;;;;;;-141.28;100.00;48666.19;5078291;28;20561;-75
2022/09/29 01:53:33;;;;;;;3.83;2.77;;;;;;;-141.28;100.00;48623.03;5079481;28;20224;-76
2022/09/29 01:56:05;;;;;;;9.37;3.37;;;;;;;-141.28;100.00;48611.25;5091258;28;20260;-76
2022/09/29 01:58:40;;;;;;;12.13;3.40;;;;;;;-141.28;100.00;48597.53;5091444;28;20203;-76
2022/09/29 02:01:14;;;;;;;15.77;3.47;;;;;;;-141.28;100.00;48575.94;5091713;28;20239;-75
2022/09/29 02:03:48;;;;;;;3.63;3.13;;;;;;;-141.28;100.00;48560.25;5091353;28;20231;-75
2022/09/29 02:06:21;;;;;;;4.17;3.40;;;;;;;-141.28;100.00;48501.41;5091263;28;20256;-78
2022/09/29 02:08:53;;;;;;;7.33;4.20;;;;;;;-141.28;100.00;48501.41;5091427;28;20203;-74
2022/09/29 02:11:21;;;;;;;7.33;4.10;;;;;;;-141.28;100.00;48468.03;5091065;28;20216;-75
2022/09/29 02:13:53;;;;;;;6.97;4.00;;;;;;;-141.28;100.00;48432.72;5081761;28;20200;-75
2022/09/29 02:16:25;;;;;;;9.87;4.57;;;;;;;-141.28;100.00;48444.50;5088677;28;20195;-74
2022/09/29 02:19:00;;;;;;;11.53;7.13;;;;;;;-141.28;100.00;48411.16;5090964;28;20210;-75
2022/09/29 02:21:29;;;;;;;12.70;7.47;;;;;;;-141.28;100.00;48393.50;5090866;28;20619;-76
2022/09/29 02:23:57;;;;;;;10.80;8.03;;;;;;;-141.28;100.00;48389.56;5090633;28;20708;-74
2022/09/29 02:26:29;;;;;;;12.47;7.63;;;;;;;-141.28;100.00;48379.78;5078286;28;20218;-75
2022/09/29 02:28:56;;;;;;;7.27;5.17;;;;;;;-141.28;100.00;48356.22;5091152;28;20278;-76
2022/09/29 02:31:24;;;;;;;9.57;5.23;;;;;;;-141.28;100.00;48330.72;5102006;28;20214;-74
2022/09/29 02:33:52;;;;;;;10.97;5.63;;;;;;;-141.28;100.00;48305.22;5077435;28;20223;-74
2022/09/29 02:36:33;;;;;;;6.97;5.13;;;;;;;-141.28;100.00;48305.22;5090556;28;20584;-75
2022/09/29 02:39:05;;;;;;;16.10;4.63;;;;;;;-141.28;100.00;48301.31;5091542;28;20196;-74
2022/09/29 02:41:45;;;;;;;8.90;4.40;;;;;;;-141.28;100.00;48291.50;5090804;28;20711;-75
2022/09/29 02:44:32;;;;;;;10.10;4.90;;;;;;;-141.28;100.00;48309.16;5090839;28;20706;-74
2022/09/29 02:47:27;;;;;;;8.43;6.10;;;;;;;-141.28;100.00;48309.16;5090798;28;20249;-75
2022/09/29 02:50:16;;;;;;;10.13;5.27;;;;;;;-141.28;100.00;48289.53;5070048;28;20197;-75
2022/09/29 02:52:53;;;;;;;5.57;4.17;;;;;;;-141.28;100.00;48285.59;5090832;28;20231;-75
2022/09/29 02:55:25;;;;;;;7.13;3.67;;;;;;;-141.28;100.00;48246.38;5090972;28;20210;-77
2022/09/29 02:57:59;;;;;;;8.23;4.27;;;;;;;-141.28;100.00;48242.47;5091174;28;20252;-76
2022/09/29 03:00:27;;;;;;;9.60;4.13;;;;;;;-141.28;100.00;48242.47;5091221;28;20673;-74
2022/09/29 03:02:54;;;;;;;7.83;3.70;;;;;;;-141.28;100.00;48248.34;5077735;28;20196;-75
2022/09/29 03:05:23;;;;;;;13.50;3.70;;;;;;;-141.28;100.00;48248.34;5090629;28;20243;-76
2022/09/29 03:07:52;;;;;;;5.73;3.20;;;;;;;-141.28;100.00;48266.00;5091546;28;20196;-76
2022/09/29 03:10:19;;;;;;;9.77;4.03;;;;;;;-141.28;100.00;48273.84;5094111;28;20286;-74
2022/09/29 03:12:47;;;;;;;7.83;3.57;;;;;;;-141.28;100.00;48285.59;5081922;28;20191;-76
2022/09/29 03:15:15;;;;;;;6.57;3.73;;;;;;;-141.28;100.00;48311.09;5097991;28;20196;-74
2022/09/29 03:17:43;;;;;;;22.23;5.00;;;;;;;-141.28;100.00;48340.53;5097983;28;20282;-74
2022/09/29 03:20:11;;;;;;;7.00;3.67;;;;;;;-141.28;100.00;48362.13;5094497;28;20200;-77
2022/09/29 03:22:38;;;;;;;6.23;3.50;;;;;;;-141.28;100.00;48317.00;5094735;28;20609;-75
2022/09/29 03:25:07;;;;;;;9.60;3.60;;;;;;;-141.28;100.00;48344.47;5094220;28;20234;-74
2022/09/29 03:27:37;;;;;;;6.33;3.37;;;;;;;-141.28;100.00;48344.47;5091681;28;20254;-75
2022/09/29 03:30:05;;;;;;;7.27;3.60;;;;;;;-141.28;100.00;48344.47;5083374;28;20291;-75
2022/09/29 03:32:32;;;;;;;13.87;3.97;;;;;;;-141.28;100.00;48324.84;5104799;28;20200;-77
2022/09/29 03:34:59;;;;;;;7.57;3.70;;;;;;;-141.28;100.00;48309.16;5093809;28;20196;-75
2022/09/29 03:37:27;;;;;;;7.63;3.70;;;;;;;-141.28;100.00;48313.06;5094092;28;20199;-77
2022/09/29 03:39:54;;;;;;;8.63;4.00;;;;;;;-141.28;100.00;48309.16;5090604;28;20200;-75
2022/09/29 03:42:23;;;;;;;6.03;3.13;;;;;;;-141.28;100.00;48305.22;5084144;28;20680;-74
2022/09/29 03:44:50;;;;;;;6.97;3.33;;;;;;;-141.28;100.00;48328.75;5093606;28;20304;-75
2022/09/29 03:47:17;;;;;;;4.83;3.30;;;;;;;-141.28;100.00;48336.63;5093685;28;20200;-76
2022/09/29 03:49:44;;;;;;;13.00;4.33;;;;;;;-141.28;100.00;48348.38;5093457;28;20196;-75
2022/09/29 03:52:11;;;;;;;10.30;4.03;;;;;;;-141.28;100.00;48340.53;5093624;28;20204;-76
2022/09/29 03:54:39;;;;;;;10.77;4.83;;;;;;;-141.28;100.00;48369.97;5093951;28;20195;-75
2022/09/29 03:57:07;;;;;;;7.53;4.30;;;;;;;-141.28;100.00;48342.50;5093461;28;20635;-75
2022/09/29 03:59:35;;;;;;;16.37;4.63;;;;;;;-141.28;100.00;48313.06;5093318;28;20199;-75
2022/09/29 04:02:02;;;;;;;7.77;4.70;;;;;;;-141.28;100.00;48318.97;5093324;28;20234;-75
2022/09/29 04:04:30;;;;;;;11.93;3.90;;;;;;;-141.28;100.00;48328.75;5072021;28;20263;-75
2022/09/29 04:06:57;;;;;;;12.17;3.77;;;;;;;-141.28;100.00;48330.72;5085924;28;20273;-75
2022/09/29 04:09:24;;;;;;;7.37;3.60;;;;;;;-141.28;100.00;48340.53;5093240;28;20488;-76
2022/09/29 04:11:52;;;;;;;4.00;3.03;;;;;;;-141.28;100.00;48336.63;5093366;28;20572;-75
2022/09/29 04:14:18;;;;;;;4.37;3.67;;;;;;;-141.28;100.00;48340.53;5093134;28;20283;-77
2022/09/29 04:16:47;;;;;;;10.27;3.67;;;;;;;-141.28;100.00;48334.66;5093349;28;20195;-75
2022/09/29 04:19:14;;;;;;;11.57;4.20;;;;;;;-141.28;100.00;48344.47;5092371;28;20662;-75
2022/09/29 04:21:41;;;;;;;8.83;3.90;;;;;;;-141.28;100.00;48340.53;5093138;28;20617;-76
2022/09/29 04:24:08;;;;;;;15.20;3.70;;;;;;;-141.28;100.00;48344.47;5092825;28;20314;-76
2022/09/29 04:26:35;;;;;;;6.10;3.53;;;;;;;-141.28;100.00;48354.28;5092665;28;20200;-73
2022/09/29 04:29:02;;;;;;;8.03;3.70;;;;;;;-141.28;100.00;48344.47;5092192;28;20203;-74
2022/09/29 04:31:29;;;;;;;9.73;3.50;;;;;;;-141.28;100.00;48344.47;5104176;28;20190;-75
2022/09/29 04:33:57;;;;;;;10.50;4.20;;;;;;;-141.28;100.00;48352.31;5092927;28;20239;-76
2022/09/29 04:36:24;;;;;;;10.03;3.57;;;;;;;-141.28;100.00;48368.00;5092709;28;20199;-75
2022/09/29 04:38:52;;;;;;;11.83;4.47;;;;;;;-141.28;100.00;48364.06;5092855;28;20261;-75
2022/09/29 04:41:20;;;;;;;6.83;4.17;;;;;;;-141.28;100.00;48356.22;5092407;28;20218;-77
2022/09/29 04:43:47;;;;;;;10.70;4.23;;;;;;;-141.28;100.00;48352.31;5092685;28;20231;-76
2022/09/29 04:46:15;;;;;;;18.60;4.87;;;;;;;-141.28;100.00;48362.13;5091734;28;20196;-74
2022/09/29 04:48:42;;;;;;;23.93;6.47;;;;;;;-141.28;100.00;48348.38;5092646;28;20621;-77
2022/09/29 04:51:10;;;;;;;14.97;5.30;;;;;;;-141.28;100.00;48371.91;5078370;28;20204;-75
2022/09/29 04:53:37;;;;;;;15.20;5.60;;;;;;;-141.28;100.00;48379.78;5092791;28;20227;-76
2022/09/29 04:56:08;;;;;;;13.27;6.20;;;;;;;-141.28;100.00;48381.72;5092372;28;20187;-75
2022/09/29 04:58:36;;;;;;;11.50;5.57;;;;;;;-141.28;100.00;48395.47;5092269;28;20202;-75
2022/09/29 05:01:08;;;;;;;7.33;4.73;;;;;;;-141.28;100.00;48399.38;5092102;28;20607;-75
2022/09/29 05:03:35;;;;;;;14.70;4.87;;;;;;;-141.28;100.00;48399.38;5092087;28;20195;-77
2022/09/29 05:06:03;;;;;;;8.10;4.10;;;;;;;-141.28;100.00;48393.50;5091859;28;20248;-76
2022/09/29 05:08:31;;;;;;;6.53;3.87;;;;;;;-141.28;100.00;48419.00;5092210;28;20278;-75
2022/09/29 05:10:58;;;;;;;7.23;4.10;;;;;;;-141.28;100.00;48419.00;5092077;28;20208;-76
2022/09/29 05:13:26;;;;;;;11.50;4.40;;;;;;;-141.28;100.00;48426.84;5091998;28;20195;-76
2022/09/29 05:15:58;;;;;;;7.27;3.80;;;;;;;-141.28;100.00;48438.63;5091800;28;20288;-78
2022/09/29 05:18:26;;;;;;;10.13;4.30;;;;;;;-141.28;100.00;48473.94;5092151;28;20192;-75
2022/09/29 05:20:53;;;;;;;18.93;5.17;;;;;;;-141.28;100.00;48493.53;5091946;28;20192;-76
2022/09/29 05:23:21;;;;;;;18.03;5.50;;;;;;;-141.28;100.00;48528.84;5091883;28;20264;-75
2022/09/29 05:25:50;;;;;;;15.93;6.20;;;;;;;-141.28;100.00;48548.47;5079158;28;20223;-75
2022/09/29 05:28:17;;;;;;;11.70;5.03;;;;;;;-141.28;100.00;48560.25;5075850;28;20609;-75
2022/09/29 05:30:44;;;;;;;25.07;5.70;;;;;;;-141.28;100.00;48579.88;5084321;28;20318;-75
2022/09/29 05:33:11;;;;;;;14.67;5.23;;;;;;;-141.28;100.00;48611.25;5096736;28;20253;-76
2022/09/29 05:35:38;;;;;;;13.87;4.83;;;;;;;-141.28;100.00;48642.63;5091322;28;20203;-76
2022/09/29 05:38:05;;;;;;;21.67;5.90;;;;;;;-141.28;100.00;48677.94;5091657;28;20200;-74
2022/09/29 05:40:34;;;;;;;36.40;7.63;;;;;;;-141.28;100.00;48721.13;5092442;28;20219;-76
2022/09/29 05:43:04;;;;;;;18.50;5.90;;;;;;;-141.28;100.00;48756.44;5093743;28;20200;-75
2022/09/29 05:45:32;;;;;;;13.57;5.63;;;;;;;-141.28;100.00;48819.22;5083166;28;20212;-75
2022/09/29 05:48:00;;;;;;;14.60;5.20;;;;;;;-141.28;100.00;48889.84;5087265;28;20560;-76
2022/09/29 05:50:27;;;;;;;10.07;4.47;;;;;;;-141.28;100.00;49007.56;5091391;28;20207;-77
2022/09/29 05:52:54;;;;;;;25.77;5.70;;;;;;;-141.28;100.00;49156.66;5091619;28;20212;-74
2022/09/29 05:55:22;;;;;;;11.23;4.50;;;;;;;-141.28;100.00;49246.94;5091012;28;20192;-76
2022/09/29 05:57:50;;;;;;;8.83;4.30;;;;;;;-141.28;100.00;49384.28;5087913;28;20588;-77
2022/09/29 06:00:19;;;;;;;13.17;4.53;;;;;;;-141.28;100.00;49549.13;5082015;28;20725;-77
2022/09/29 06:02:46;;;;;;;13.23;3.90;;;;;;;-141.28;100.00;49686.47;5091005;28;20253;-76
2022/09/29 06:08:12;;;;;;;9.57;3.97;;;;;;;-141.28;100.00;49933.75;5090977;28;20244;-78
2022/09/29 06:10:39;;;;;;;11.50;3.73;;;;;;;-141.28;100.00;50020.09;5091344;28;20614;-77
2022/09/29 06:13:07;;;;;;;11.00;3.90;;;;;;;-141.28;100.00;50078.97;5091264;28;20565;-77
2022/09/29 06:15:37;;;;;;;9.43;4.03;;;;;;;-141.28;100.00;50220.28;5090807;28;20700;-75
2022/09/29 06:18:04;;;;;;;5.23;3.33;;;;;;;-141.28;100.00;50420.50;5091407;28;20199;-76
2022/09/29 06:20:37;;;;;;;9.83;5.63;;;;;;;-141.28;100.00;50644.28;5090959;28;20271;-77
2022/09/29 06:23:04;;;;;;;7.70;4.00;;;;;;;-141.28;100.00;50844.50;5091154;28;20557;-76
2022/09/29 06:25:32;;;;;;;9.60;3.90;;;;;;;-141.28;100.00;51001.56;5090433;28;20756;-74
2022/09/29 06:27:58;;;;;;;9.03;3.70;;;;;;;-141.28;100.00;51176.28;5090855;28;20256;-76
2022/09/29 06:30:26;;;;;;;9.17;3.50;;;;;;;-141.28;100.00;51423.66;5094026;28;20199;-74
2022/09/29 06:32:55;;;;;;;7.40;3.93;;;;;;;-141.28;100.00;51802.63;5099285;28;20200;-76
2022/09/29 06:38:06;;;;;;;14.73;3.57;;;;;;;-141.28;100.00;52254.28;5089333;28;20595;-76
2022/09/29 06:40:34;;;;;;;12.23;3.87;;;;;;;-141.28;100.00;52279.81;5079342;28;20199;-75
2022/09/29 06:43:01;;;;;;;12.80;3.07;;;;;;;-141.28;100.00;52360.34;5092004;28;20677;-77
2022/09/29 06:45:28;;;;;;;12.70;3.37;;;;;;;-141.28;100.00;52352.47;5094696;28;20708;-75
2022/09/29 06:48:02;;;;;;;10.90;3.10;;;;;;;-141.28;100.00;52356.41;5094817;28;20554;-75
2022/09/29 06:50:28;;;;;;;10.70;3.20;;;;;;;-141.28;100.00;52317.13;5094683;28;20627;-78
2022/09/29 06:52:56;;;;;;;8.73;2.63;;;;;;;-141.28;100.00;52407.47;5094339;28;20238;-76
2022/09/29 06:55:23;;;;;;;5.07;2.67;;;;;;;-141.28;100.00;52411.41;5094560;28;20625;-73
2022/09/29 06:57:50;;;;;;;4.13;2.50;;;;;;;-141.28;100.00;52387.84;5094303;28;20195;-75
2022/09/29 07:00:17;;;;;;;12.37;2.33;;;;;;;-141.28;100.00;52419.25;5094624;28;20747;-76
2022/09/29 07:02:45;;;;;;;10.47;2.70;;;;;;;-141.28;100.00;52395.69;5090518;28;20376;-73
2022/09/29 07:05:17;;;;;;;8.53;2.57;;;;;;;-141.28;100.00;52379.97;5094742;28;20219;-75
2022/09/29 07:07:44;;;;;;;6.60;2.30;;;;;;;-141.28;100.00;52407.47;5099795;28;20269;-75
2022/09/29 07:10:14;;;;;;;5.60;2.10;;;;;;;-141.28;100.00;52364.25;5093810;28;20200;-75
2022/09/29 07:12:46;;;;;;;5.97;2.30;;;;;;;-141.28;100.00;52346.59;5094324;28;20336;-76
2022/09/29 07:15:14;;;;;;;11.87;2.70;;;;;;;-141.28;100.00;52383.91;5094046;28;20286;-78
2022/09/29 07:17:42;;;;;;;5.93;2.50;;;;;;;-141.28;100.00;52370.16;5081927;28;20199;-76
2022/09/29 07:20:11;;;;;;;6.47;2.73;;;;;;;-141.28;100.00;52376.06;5074023;28;20293;-77
2022/09/29 07:22:39;;;;;;;3.90;2.30;;;;;;;-141.28;100.00;52356.41;5094696;28;20191;-76
2022/09/29 07:25:07;;;;;;;8.63;2.40;;;;;;;-141.28;100.00;52387.84;5093753;28;20306;-75
2022/09/29 07:27:36;;;;;;;5.37;2.40;;;;;;;-141.28;100.00;52372.13;5093977;28;20265;-76
2022/09/29 07:30:04;;;;;;;10.13;3.20;;;;;;;-141.28;100.00;52556.75;5092392;28;20576;-75
2022/09/29 07:32:34;;;;;;;9.10;2.60;;;;;;;-141.28;100.00;52544.97;5085257;28;20212;-74
2022/09/29 07:35:01;;;;;;;4.63;2.43;;;;;;;-141.28;100.00;52580.31;5090421;28;20223;-74
2022/09/29 07:37:29;;;;;;;11.93;2.40;;;;;;;-141.28;100.00;52607.81;5094009;28;20244;-75
2022/09/29 07:39:57;;;;;;;11.07;2.63;;;;;;;-141.28;100.00;52603.88;5093645;28;20195;-76
2022/09/29 07:42:28;;;;;;;9.10;2.70;;;;;;;-141.28;100.00;52529.25;5093444;28;20208;-76
2022/09/29 07:44:57;;;;;;;6.37;2.50;;;;;;;-141.28;100.00;52588.16;5093637;28;20203;-75
2022/09/29 07:47:26;;;;;;;5.57;2.40;;;;;;;-141.28;100.00;52552.81;5093489;28;20249;-77
2022/09/29 07:49:52;;;;;;;13.43;2.53;;;;;;;-141.28;100.00;52607.81;5087780;28;20193;-77
2022/09/29 07:52:20;;;;;;;13.20;2.90;;;;;;;-141.28;100.00;52635.31;5086111;28;20195;-76
2022/09/29 07:54:49;;;;;;;12.03;2.83;;;;;;;-141.28;100.00;52535.13;5093325;28;20264;-77
2022/09/29 07:57:20;;;;;;;6.47;2.63;;;;;;;-141.28;100.00;52543.00;5093252;28;20290;-73
2022/09/29 07:59:49;;;;;;;13.00;3.07;;;;;;;-141.28;100.00;52497.81;5080550;28;20203;-75
2022/09/29 08:02:17;;;;;;;5.80;2.43;;;;;;;-141.28;100.00;52548.88;5093388;28;20256;-75
2022/09/29 08:04:44;;;;;;;8.20;2.53;;;;;;;-141.28;100.00;52501.75;5086261;28;20203;-78
2022/09/29 08:07:11;;;;;;;4.10;2.50;;;;;;;-141.28;100.00;52493.88;5087330;28;20203;-76
2022/09/29 08:09:39;;;;;;;5.77;2.40;;;;;;;-141.28;100.00;52466.41;5093069;28;20653;-77
2022/09/29 08:12:07;;;;;;;8.67;2.50;;;;;;;-141.28;100.00;52456.56;5093202;28;20212;-76
2022/09/29 08:14:37;;;;;;;5.77;2.70;;;;;;;-141.28;100.00;52470.31;5093676;28;20290;-76
2022/09/29 08:19:47;;;;;;;7.23;2.37;;;;;;;-141.28;100.00;52393.72;5094162;28;20598;-77
2022/09/29 08:22:15;;;;;;;9.60;2.77;;;;;;;-141.28;100.00;52364.25;5089060;28;20238;-75
2022/09/29 08:24:43;;;;;;;5.03;2.67;;;;;;;-141.28;100.00;52277.84;5084448;28;20196;-74
2022/09/29 08:27:11;;;;;;;5.40;2.23;;;;;;;-141.28;100.00;52187.50;5092891;28;20809;-77
2022/09/29 08:29:41;;;;;;;5.20;2.77;;;;;;;-141.28;100.00;52163.94;5092710;28;20647;-76
2022/09/29 08:32:08;;;;;;;4.50;2.20;;;;;;;-141.28;100.00;51963.63;5104323;28;20212;-76
2022/09/29 08:34:35;;;;;;;6.13;2.20;;;;;;;-141.28;100.00;51841.88;5092796;28;20575;-74
2022/09/29 08:37:02;;;;;;;8.30;2.83;;;;;;;-141.28;100.00;51769.25;5092622;28;20284;-76
2022/09/29 08:39:36;;;;;;;6.50;2.40;;;;;;;-141.28;100.00;51806.53;5092868;28;20195;-76
2022/09/29 08:42:12;;;;;;;8.13;2.50;;;;;;;-141.28;100.00;51837.97;5076463;28;20233;-76
2022/09/29 08:44:49;;;;;;;6.70;2.70;;;;;;;-141.28;100.00;51914.56;5089500;28;20733;-75
2022/09/29 08:47:25;;;;;;;7.73;2.80;;;;;;;-141.28;100.00;51710.31;5092357;28;20228;-77
2022/09/29 08:49:57;;;;;;;11.13;3.03;;;;;;;-141.28;100.00;51786.91;5092713;28;20194;-76
2022/09/29 08:52:38;;;;;;;7.00;2.53;;;;;;;-141.28;100.00;51845.81;5092799;28;20204;-78
2022/09/29 08:55:23;;;;;;;7.27;3.03;;;;;;;-141.28;100.00;51865.47;5080912;28;20199;-78
2022/09/29 08:57:55;;;;;;;4.40;2.30;;;;;;;-141.28;100.00;51875.28;5092386;28;20319;-76
2022/09/29 09:00:37;;;;;;;11.53;2.80;;;;;;;-141.28;100.00;51877.25;5092465;28;20231;-76
2022/09/29 09:03:19;;;;;;;8.10;2.93;;;;;;;-141.28;100.00;51720.16;5079712;28;20227;-78
2022/09/29 09:06:09;;;;;;;7.30;2.47;;;;;;;-141.28;100.00;51519.88;5091369;28;20254;-77
2022/09/29 09:08:54;;;;;;;6.90;2.63;;;;;;;-141.28;100.00;51390.28;5088182;28;20208;-76
2022/09/29 09:11:34;;;;;;;5.60;2.20;;;;;;;-141.28;100.00;51131.13;5081022;28;20255;-77
2022/09/29 09:14:14;;;;;;;8.90;2.10;;;;;;;-141.28;100.00;50970.13;5091508;28;20191;-77
2022/09/29 09:16:54;;;;;;;12.83;2.97;;;;;;;-141.28;100.00;50926.94;5091915;28;20203;-75
2022/09/29 09:19:46;;;;;;;6.23;2.30;;;;;;;-141.28;100.00;50817.03;5092096;28;20198;-76
2022/09/29 09:22:22;;;;;;;6.23;2.07;;;;;;;-141.28;100.00;50891.63;5091520;28;20662;-77
2022/09/29 09:24:56;;;;;;;6.67;2.57;;;;;;;-141.28;100.00;50803.28;5090905;28;20278;-75
2022/09/29 09:27:27;;;;;;;6.40;2.70;;;;;;;-141.28;100.00;50612.88;5078816;28;20654;-74
2022/09/29 09:30:06;;;;;;;9.33;2.50;;;;;;;-141.28;100.00;50377.31;5076978;28;20243;-75
2022/09/29 09:32:42;;;;;;;9.60;2.60;;;;;;;-141.28;100.00;50173.19;5079745;28;20199;-75
2022/09/29 09:35:24;;;;;;;15.73;2.87;;;;;;;-141.28;100.00;50110.38;5091351;28;20227;-75
2022/09/29 09:37:54;;;;;;;7.87;2.13;;;;;;;-141.28;100.00;50092.72;5092005;28;20203;-75
2022/09/29 09:40:28;;;;;;;5.27;1.93;;;;;;;-141.28;100.00;49943.56;5091633;28;20195;-77
2022/09/29 09:43:03;;;;;;;3.57;1.80;;;;;;;-141.28;100.00;49880.75;5077675;28;20673;-76
2022/09/29 09:45:35;;;;;;;7.23;2.10;;;;;;;-141.28;100.00;49772.81;5091069;28;20192;-77
2022/09/29 09:48:12;;;;;;;4.50;2.20;;;;;;;-141.28;100.00;49761.06;5091166;28;20265;-76
2022/09/29 09:50:42;;;;;;;6.63;2.00;;;;;;;-141.28;100.00;49894.50;5091528;28;20206;-76
2022/09/29 09:53:15;;;;;;;6.73;2.40;;;;;;;-141.28;100.00;50143.75;5085792;28;20323;-75
2022/09/29 09:55:43;;;;;;;6.43;2.70;;;;;;;-141.28;100.00;50008.34;5084719;28;20657;-77
2022/09/29 09:58:27;;;;;;;6.03;2.27;;;;;;;-141.28;100.00;50008.34;5091214;28;20199;-75
2022/09/29 10:00:58;;;;;;;5.40;2.20;;;;;;;-141.28;100.00;49992.63;5091285;28;20320;-76
2022/09/29 10:03:28;;;;;;;8.93;2.40;;;;;;;-141.28;100.00;49998.50;5093692;28;20553;-74
2022/09/29 10:05:56;;;;;;;5.70;1.97;;;;;;;-141.28;100.00;49823.84;5092867;28;20211;-74
2022/09/29 10:08:26;;;;;;;11.43;2.47;;;;;;;-141.28;100.00;49594.25;5091341;28;20202;-75
2022/09/29 10:10:54;;;;;;;7.60;2.57;;;;;;;-141.28;100.00;49480.44;5090783;28;20200;-76
2022/09/29 10:13:24;;;;;;;9.23;2.20;;;;;;;-141.28;100.00;49305.78;5091256;28;20263;-77
2022/09/29 10:15:56;;;;;;;6.97;2.27;;;;;;;-141.28;100.00;49437.25;5090974;28;20624;-78
2022/09/29 10:18:29;;;;;;;4.83;1.80;;;;;;;-141.28;100.00;49447.06;5095194;28;20198;-75
2022/09/29 10:20:56;;;;;;;2.60;1.90;;;;;;;-141.28;100.00;49427.44;5082754;28;20249;-75
2022/09/29 10:23:31;;;;;;;3.93;2.13;;;;;;;-141.28;100.00;49374.47;5095115;28;20276;-75
2022/09/29 10:26:14;;;;;;;5.60;2.07;;;;;;;-141.28;100.00;49849.38;5095261;28;20715;-76
2022/09/29 10:28:45;;;;;;;6.47;2.50;;;;;;;-141.28;100.00;49537.34;5095154;28;20641;-75
2022/09/29 10:31:25;;;;;;;12.17;2.40;;;;;;;-141.28;100.00;49635.47;5104276;28;20710;-75
2022/09/29 10:33:56;;;;;;;10.40;2.83;;;;;;;-141.28;100.00;49451.00;5082279;28;20199;-76
2022/09/29 10:36:26;;;;;;;13.67;3.43;;;;;;;-141.28;100.00;49682.56;5081251;28;20651;-76
2022/09/29 10:38:55;;;;;;;13.40;2.80;;;;;;;-141.28;100.00;49343.06;5095402;28;20287;-75
2022/09/29 10:41:24;;;;;;;8.30;2.23;;;;;;;-141.28;100.00;49364.66;5094780;28;20267;-76
2022/09/29 10:43:52;;;;;;;11.60;2.47;;;;;;;-141.28;100.00;49323.44;5094902;28;20199;-76
2022/09/29 10:46:38;;;;;;;6.33;2.60;;;;;;;-141.28;100.00;49537.34;5094566;28;20277;-75
2022/09/29 10:49:14;;;;;;;8.90;2.10;;;;;;;-141.28;100.00;49488.28;5094953;28;20235;-75
2022/09/29 10:51:48;;;;;;;8.57;2.10;;;;;;;-141.28;100.00;49244.97;5085227;28;20264;-76
2022/09/29 10:54:16;;;;;;;2.63;2.10;;;;;;;-141.28;100.00;48980.09;5102082;28;20216;-74
2022/09/29 10:56:47;;;;;;;3.07;1.83;;;;;;;-141.28;100.00;48817.25;5096441;28;20202;-75
2022/09/29 10:59:17;;;;;;;4.77;1.90;;;;;;;-141.28;100.00;48807.44;5081537;28;20290;-74
2022/09/29 11:01:49;;;;;;;4.97;1.90;;;;;;;-141.28;100.00;48776.03;5094398;28;20235;-75
2022/09/29 11:04:22;;;;;;;3.03;1.93;;;;;;;-141.28;90.26;48787.81;5094636;28;20633;-77
2022/09/29 11:06:51;;;;;;;6.80;1.70;;;;;;;-141.28;86.14;48758.38;5094710;28;20708;-75
2022/09/29 11:09:30;;;;;;;3.20;1.93;;;;;;;-141.28;76.15;48730.91;5094264;28;20191;-76
2022/09/29 11:12:00;;;;;;;4.57;2.37;;;;;;;-141.28;74.24;48799.59;5094403;28;20656;-76
2022/09/29 11:14:29;;;;;;;4.33;2.13;;;;;;;-141.28;76.51;48823.13;5094654;28;20285;-75
2022/09/29 11:16:59;;;;;;;2.63;1.90;;;;;;;-141.28;76.86;48862.38;5094152;28;20221;-77
2022/09/29 11:19:31;;;;;;;5.20;2.30;;;;;;;-141.28;80.71;48856.47;5094460;28;20254;-76
2022/09/29 11:22:45;;;;;;;5.97;2.23;;;;;;;-141.28;80.52;48862.38;5094520;28;20239;-75
2022/09/29 11:25:41;;;;;;;3.63;2.03;;;;;;;-141.28;82.41;48885.91;5012351;28;20196;-75
2022/09/29 11:28:33;;;;;;;6.73;2.00;;;;;;;-141.28;81.45;48858.44;5086397;28;20302;-75
2022/09/29 11:31:16;;;;;;;5.70;2.07;;;;;;;-141.28;75.36;48830.97;5090033;28;20273;-76
2022/09/29 11:33:55;;;;;;;4.77;1.80;;;;;;;-141.28;72.88;48805.47;5095002;28;20216;-75